»·PEaware :: UAL1327 KLAS-KPHX

UAL1327 :: KLAS-KPHX

FLIGHT INFORMATION

Flight Status: Arrived
Operator:
United Airlines
More flights by this operator :: More flights under this callsign
Pilot: Juan B. (20291)
Aircraft: BOEING 737-800
(B738)
More flights by this aircraft type
Origin: KLAS McCarran Intl
United States
Destination: KPHX Phoenix Sky Harbor Intl
United States
More flights between these airports :: More routes between these airports
Route: +COWBY6 COWBY TENTS BRUSR1
File this flight plan on PilotEdge
Remarks: / L
Altitude:
(Current/Filed)
37,000ft
Speed:
(Current/Filed)
400kts
Departed: 14-Sep-18 01:09 PM
Arrived: 14-Sep-18 01:59 PM
Distance/Time
Traveled:
222nm/0:50
Distance/Time
To Go:
Arrived

Flight Plot

Page will automatically refresh every two minutes.


Map Options




Map Legend


Flown Route
Filed Route
Departure Airport
Arrival Airport
Navaid (VOR, NDB)
Fix

Horizontal Profiles

Position Reports

Time Latitude Longitude Heading Altitude Ground
Speed
14-Sep-18 12:38 36.085242 -115.137858 0 2057ft 0kts
14-Sep-18 12:39 36.085242 -115.137858 0 2057ft 0kts
14-Sep-18 12:40 36.085242 -115.137858 0 2057ft 0kts
14-Sep-18 12:41 36.085242 -115.137858 0 2057ft 0kts
14-Sep-18 12:42 36.085242 -115.137858 0 2057ft 0kts
14-Sep-18 12:43 36.085242 -115.137858 0 2057ft 0kts
14-Sep-18 12:44 36.085242 -115.137858 0 2057ft 0kts
14-Sep-18 12:45 36.085242 -115.137858 0 2057ft 0kts
14-Sep-18 12:46 36.085242 -115.137858 0 2057ft 0kts
14-Sep-18 12:47 36.085242 -115.137858 0 2057ft 0kts
14-Sep-18 12:48 36.085242 -115.137858 0 2057ft 0kts
14-Sep-18 12:49 36.085242 -115.137858 0 2057ft 0kts
14-Sep-18 12:50 36.085242 -115.137858 0 2057ft 0kts
14-Sep-18 12:51 36.085242 -115.137858 0 2057ft 0kts
14-Sep-18 12:52 36.085242 -115.137858 0 2057ft 0kts
14-Sep-18 12:53 36.085242 -115.137858 0 2057ft 0kts
14-Sep-18 12:54 36.085242 -115.137858 0 2057ft 0kts
14-Sep-18 12:55 36.085242 -115.137858 0 2057ft 0kts
14-Sep-18 12:56 36.085242 -115.137858 0 2057ft 0kts
14-Sep-18 12:57 36.084791 -115.137733 316 2057ft 2kts
14-Sep-18 12:58 36.084661 -115.137310 269 2057ft 0kts
14-Sep-18 12:59 36.084661 -115.137311 269 2057ft 0kts
14-Sep-18 13:00 36.084661 -115.137311 269 2057ft 0kts
14-Sep-18 13:01 36.084661 -115.137382 269 2057ft 4kts
14-Sep-18 13:02 36.084650 -115.139331 269 2063ft 6kts
14-Sep-18 13:03 36.083765 -115.141314 221 2070ft 12kts
14-Sep-18 13:04 36.080804 -115.141585 180 2078ft 9kts
14-Sep-18 13:05 36.078311 -115.141221 114 2083ft 11kts
14-Sep-18 13:06 36.078251 -115.134667 91 2064ft 25kts
14-Sep-18 13:07 36.078268 -115.124770 89 2038ft 27kts
14-Sep-18 13:08 36.077527 -115.121552 134 2036ft 0kts
14-Sep-18 13:09 36.077527 -115.121552 134 2036ft 0kts
14-Sep-18 13:10 36.076662 -115.121275 191 2038ft 4kts
14-Sep-18 13:11 36.076419 -115.128848 269 2050ft 108kts
14-Sep-18 13:12 36.076432 -115.185430 266 3637ft 207kts
14-Sep-18 13:13 36.055543 -115.262404 215 5849ft 268kts
14-Sep-18 13:14 35.985486 -115.297022 200 7014ft 281kts
14-Sep-18 13:15 35.910159 -115.280998 164 10364ft 294kts
14-Sep-18 13:16 35.851529 -115.207991 110 12817ft 344kts
14-Sep-18 13:17 35.824954 -115.094072 109 15694ft 358kts
14-Sep-18 13:18 35.829011 -114.970257 85 18323ft 380kts
14-Sep-18 13:19 35.841798 -114.839597 86 20779ft 394kts
14-Sep-18 13:20 35.854136 -114.705105 86 22987ft 407kts
14-Sep-18 13:21 35.866519 -114.566691 86 25012ft 420kts
14-Sep-18 13:22 35.879089 -114.423518 86 26878ft 433kts
14-Sep-18 13:23 35.891808 -114.276384 87 28590ft 444kts
14-Sep-18 13:24 35.904713 -114.125071 87 30382ft 449kts
14-Sep-18 13:25 35.917363 -113.974397 87 32282ft 446kts
14-Sep-18 13:26 35.903342 -113.828636 113 33988ft 429kts
14-Sep-18 13:27 35.863142 -113.691885 114 35578ft 425kts
14-Sep-18 13:28 35.823315 -113.556696 114 36931ft 423kts
14-Sep-18 13:29 35.782526 -113.418840 114 37096ft 453kts
14-Sep-18 13:30 35.739726 -113.274371 114 37082ft 460kts
14-Sep-18 13:31 35.696075 -113.127523 114 37194ft 461kts
14-Sep-18 13:32 35.652671 -112.982399 114 36977ft 474kts
14-Sep-18 13:33 35.607853 -112.833209 113 35564ft 468kts
14-Sep-18 13:34 35.562853 -112.684134 112 34490ft 470kts
14-Sep-18 13:35 35.517286 -112.534081 113 30856ft 474kts
14-Sep-18 13:36 35.422100 -112.437176 168 29373ft 465kts
14-Sep-18 13:37 35.294957 -112.411730 173 29289ft 465kts
14-Sep-18 13:38 35.168778 -112.387187 171 28939ft 469kts
14-Sep-18 13:39 35.042359 -112.359905 171 27250ft 468kts
14-Sep-18 13:40 34.914665 -112.332384 171 25477ft 472kts
14-Sep-18 13:41 34.787816 -112.304765 171 23761ft 461kts
14-Sep-18 13:42 34.664759 -112.277731 171 22112ft 451kts
14-Sep-18 13:43 34.543421 -112.251150 171 20485ft 437kts
14-Sep-18 13:44 34.433941 -112.226913 170 19178ft 359kts
14-Sep-18 13:45 34.338880 -112.202315 170 17490ft 356kts
14-Sep-18 13:46 34.247812 -112.178686 170 15936ft 334kts
14-Sep-18 13:47 34.163538 -112.156161 182 15017ft 307kts
14-Sep-18 13:48 34.081803 -112.138231 179 14891ft 307kts
14-Sep-18 13:49 33.993796 -112.146080 187 12263ft 314kts
14-Sep-18 13:50 33.913462 -112.155397 188 10979ft 286kts
14-Sep-18 13:51 33.839294 -112.170362 193 9861ft 275kts
14-Sep-18 13:52 33.767195 -112.186001 193 8749ft 272kts
14-Sep-18 13:53 33.694240 -112.201611 192 7632ft 264kts
14-Sep-18 13:54 33.625959 -112.216276 188 6603ft 244kts
14-Sep-18 13:55 33.560252 -112.230273 187 5583ft 250kts
14-Sep-18 13:56 33.498372 -112.206891 153 4225ft 243kts
14-Sep-18 13:57 33.445326 -112.169350 126 3177ft 206kts
14-Sep-18 13:58 33.440544 -112.112313 84 2477ft 160kts
14-Sep-18 13:59 33.440821 -112.061108 89 1743ft 158kts
14-Sep-18 14:00 33.440868 -112.015988 89 1123ft 118kts
14-Sep-18 14:01 33.440076 -112.004359 133 1130ft 9kts
14-Sep-18 14:02 33.439819 -112.004038 133 1130ft 0kts
14-Sep-18 14:03 33.439716 -112.003885 136 1130ft 3kts
14-Sep-18 14:04 33.437997 -112.003775 180 1130ft 8kts
14-Sep-18 14:05 33.435049 -112.003818 179 1126ft 14kts
14-Sep-18 14:06 33.432862 -112.005366 269 1126ft 16kts
14-Sep-18 14:07 33.433572 -112.008256 318 1129ft 0kts
14-Sep-18 14:08 33.433572 -112.008256 318 1129ft 0kts

Navigation Log

Ident Type
1. KLAS Airport
2. FIXIX Fix
3. ROPPR Fix
4. CEASR Fix
5. HITME Fix
6. COWBY Fix
7. TENTS Fix
8. PANTD Fix
9. DUTEY Fix
10. MAIER Fix
11. BRUSR Fix
12. BDWIL Fix
13. ENSEA Fix
14. FBALL Fix
15. PGSKN Fix
16. TLMAN Fix
17. FOWLE Fix
18. KPHX Airport